createdAt,value
2022-10-06T00:00:00.944Z,31.10
2022-10-06T00:02:28.542Z,28.15
2022-10-06T00:04:55.415Z,32.42
2022-10-06T00:07:22.221Z,28.15
2022-10-06T00:09:48.897Z,28.48
2022-10-06T00:12:15.743Z,30.13
2022-10-06T00:14:42.454Z,28.85
2022-10-06T00:17:09.128Z,29.33
2022-10-06T00:19:35.962Z,30.27
2022-10-06T00:22:02.945Z,29.92
2022-10-06T00:24:29.601Z,27.33
2022-10-06T00:26:56.457Z,28.27
2022-10-06T00:29:23.191Z,26.70
2022-10-06T00:31:49.857Z,30.25
2022-10-06T00:34:16.850Z,28.92
2022-10-06T00:36:43.937Z,29.42
2022-10-06T00:39:10.595Z,27.38
2022-10-06T00:41:38.932Z,27.48
2022-10-06T00:44:05.602Z,26.33
2022-10-06T00:46:46.223Z,24.00
2022-10-06T00:49:26.133Z,23.00
2022-10-06T00:51:58.217Z,23.88
2022-10-06T00:54:25.616Z,24.73
2022-10-06T00:56:52.882Z,24.90
2022-10-06T00:59:20.347Z,22.13
2022-10-06T01:02:01.863Z,27.15
2022-10-06T01:04:36.638Z,24.52
2022-10-06T01:07:03.881Z,24.15
2022-10-06T01:09:31.444Z,28.05
2022-10-06T01:12:02.302Z,25.65
2022-10-06T01:14:29.913Z,27.20
2022-10-06T01:17:02.620Z,26.92
2022-10-06T01:19:35.991Z,26.77
2022-10-06T01:22:06.208Z,29.38
2022-10-06T01:24:33.143Z,31.88
2022-10-06T01:27:01.265Z,30.35
2022-10-06T01:29:28.499Z,36.83
2022-10-06T01:31:55.427Z,31.92
2022-10-06T01:34:22.360Z,33.08
2022-10-06T01:36:49.155Z,37.13
2022-10-06T01:39:15.872Z,30.08
2022-10-06T01:41:42.664Z,31.55
2022-10-06T01:44:09.315Z,30.95
2022-10-06T01:46:36.044Z,31.60
2022-10-06T01:49:02.854Z,31.42
2022-10-06T01:51:29.589Z,30.73
2022-10-06T01:53:57.858Z,29.50
2022-10-06T01:56:24.738Z,28.17
2022-10-06T01:58:51.391Z,29.30
2022-10-06T02:01:18.178Z,30.05
2022-10-06T02:03:45.498Z,31.48
2022-10-06T02:06:12.275Z,30.08
2022-10-06T02:08:39.115Z,30.92
2022-10-06T02:11:09.534Z,33.72
2022-10-06T02:13:37.877Z,31.77
2022-10-06T02:16:06.815Z,31.05
2022-10-06T02:18:34.588Z,29.58
2022-10-06T02:21:02.230Z,29.05
2022-10-06T02:23:30.359Z,30.95
2022-10-06T02:26:06.207Z,28.42
2022-10-06T02:28:33.675Z,27.83
2022-10-06T02:31:07.578Z,26.15
2022-10-06T02:33:36.105Z,27.35
2022-10-06T02:36:06.104Z,29.10
2022-10-06T02:38:33.594Z,28.92
2022-10-06T02:41:02.028Z,27.02
2022-10-06T02:43:30.132Z,28.98
2022-10-06T02:46:01.700Z,31.15
2022-10-06T02:48:29.629Z,29.27
2022-10-06T02:51:02.157Z,26.58
2022-10-06T02:53:29.595Z,30.45
2022-10-06T02:56:06.765Z,27.75
2022-10-06T02:58:34.173Z,31.30
2022-10-06T03:01:10.910Z,34.95
2022-10-06T03:03:38.122Z,29.67
2022-10-06T03:06:21.976Z,30.73
2022-10-06T03:08:58.619Z,32.53
2022-10-06T03:11:28.526Z,31.88
2022-10-06T03:13:55.936Z,34.60
2022-10-06T03:16:32.380Z,34.80
2022-10-06T03:18:59.768Z,30.40
2022-10-06T03:21:29.816Z,32.67
2022-10-06T03:23:57.977Z,33.20
2022-10-06T03:26:27.857Z,29.77
2022-10-06T03:28:55.664Z,31.48
2022-10-06T03:31:23.495Z,32.10
2022-10-06T03:33:51.743Z,30.40
2022-10-06T03:36:21.477Z,35.35
2022-10-06T03:38:48.683Z,32.15
2022-10-06T03:41:18.196Z,29.67
2022-10-06T03:43:46.564Z,35.53
2022-10-06T03:46:20.004Z,32.80
2022-10-06T03:48:47.970Z,35.13
2022-10-06T03:51:17.905Z,32.47
2022-10-06T03:53:50.136Z,32.28
2022-10-06T03:56:20.002Z,33.30
2022-10-06T03:58:50.666Z,32.00
2022-10-06T04:01:26.233Z,31.52
2022-10-06T04:03:57.731Z,31.63
2022-10-06T04:06:25.578Z,33.40
2022-10-06T04:08:53.197Z,30.42
2022-10-06T04:11:22.942Z,32.58
2022-10-06T04:13:57.267Z,29.08
2022-10-06T04:16:26.512Z,29.10
2022-10-06T04:18:55.544Z,29.48
2022-10-06T04:21:23.511Z,27.20
2022-10-06T04:23:54.801Z,29.00
2022-10-06T04:26:23.392Z,28.13
2022-10-06T04:28:50.671Z,28.00
2022-10-06T04:31:20.057Z,31.38
2022-10-06T04:33:51.051Z,28.10
2022-10-06T04:36:23.305Z,28.35
2022-10-06T04:38:51.440Z,28.00
2022-10-06T04:41:19.854Z,27.20
2022-10-06T04:43:47.968Z,32.47
2022-10-06T04:46:41.386Z,29.52
2022-10-06T04:49:04.160Z,28.90
2022-10-06T04:51:34.265Z,28.40
2022-10-06T04:54:02.538Z,29.65
2022-10-06T04:56:33.857Z,27.90
2022-10-06T04:59:03.562Z,29.15
2022-10-06T05:01:35.727Z,28.73
2022-10-06T05:04:04.546Z,31.23
2022-10-06T05:06:34.082Z,33.08
2022-10-06T05:09:04.399Z,30.13
2022-10-06T05:11:32.169Z,30.13
2022-10-06T05:13:59.373Z,35.85
2022-10-06T05:16:28.785Z,30.05
2022-10-06T05:18:57.643Z,30.98
2022-10-06T05:21:34.627Z,28.58
2022-10-06T05:24:03.009Z,26.95
2022-10-06T05:26:33.169Z,34.65
2022-10-06T05:29:11.796Z,38.72
2022-10-06T05:31:44.701Z,39.33
2022-10-06T05:34:16.899Z,42.13
2022-10-06T05:36:43.872Z,43.50
2022-10-06T05:39:10.581Z,42.47
2022-10-06T05:41:38.147Z,42.40
2022-10-06T05:44:05.237Z,45.30
2022-10-06T05:46:33.304Z,43.92
2022-10-06T05:49:15.984Z,45.40
2022-10-06T05:51:42.849Z,40.05
2022-10-06T05:54:09.500Z,44.00
2022-10-06T05:56:38.143Z,36.85
2022-10-06T05:59:05.863Z,37.80
2022-10-06T06:01:43.047Z,34.25
2022-10-06T06:04:16.553Z,40.97
2022-10-06T06:06:45.532Z,37.63
2022-10-06T06:09:17.647Z,40.95
2022-10-06T06:11:47.278Z,36.65
2022-10-06T06:14:16.401Z,40.08
2022-10-06T06:17:07.163Z,34.90
2022-10-06T06:19:31.921Z,33.08
2022-10-06T06:22:01.298Z,39.80
2022-10-06T06:24:35.385Z,37.50
2022-10-06T06:27:02.228Z,35.45
2022-10-06T06:29:29.055Z,36.38
2022-10-06T06:31:55.708Z,36.50
2022-10-06T06:34:22.933Z,30.90
2022-10-06T06:36:53.609Z,33.42
2022-10-06T06:39:22.608Z,33.20
2022-10-06T06:41:49.477Z,30.25
2022-10-06T06:44:16.322Z,29.48
2022-10-06T06:46:46.865Z,32.30
2022-10-06T06:49:13.876Z,32.13
2022-10-06T06:51:43.437Z,31.63
2022-10-06T06:54:11.630Z,30.97
2022-10-06T06:56:39.073Z,34.83
2022-10-06T06:59:08.960Z,34.15
2022-10-06T07:01:37.475Z,30.70
2022-10-06T07:04:04.686Z,33.50
2022-10-06T07:06:32.635Z,34.90
2022-10-06T07:09:00.169Z,35.13
2022-10-06T07:11:33.390Z,36.03
2022-10-06T07:14:05.345Z,37.30
2022-10-06T07:16:52.640Z,35.78
2022-10-06T07:19:39.785Z,33.08
2022-10-06T07:22:34.985Z,38.83
2022-10-06T07:25:07.517Z,31.15
2022-10-06T07:27:45.521Z,36.90
2022-10-06T07:30:25.761Z,31.48
2022-10-06T07:32:53.634Z,31.35
2022-10-06T07:35:21.581Z,28.58
2022-10-06T07:37:49.951Z,29.67
2022-10-06T07:40:17.428Z,30.65
2022-10-06T07:42:53.724Z,31.98
2022-10-06T07:45:46.375Z,27.67
2022-10-06T07:48:22.491Z,31.75
2022-10-06T07:50:51.064Z,27.27
2022-10-06T07:53:18.629Z,30.73
2022-10-06T07:55:47.656Z,26.30
2022-10-06T07:58:17.030Z,28.92
2022-10-06T08:00:44.825Z,29.38
2022-10-06T08:03:14.669Z,27.92
2022-10-06T08:05:41.587Z,28.13
2022-10-06T08:08:10.205Z,28.08
2022-10-06T08:10:37.280Z,36.10
2022-10-06T08:13:07.705Z,26.35
2022-10-06T08:15:35.052Z,30.65
2022-10-06T08:18:06.203Z,29.50
2022-10-06T08:20:35.659Z,27.67
2022-10-06T08:23:02.508Z,27.70
2022-10-06T08:25:43.983Z,33.50
2022-10-06T08:28:50.076Z,32.30
2022-10-06T08:31:33.593Z,34.17
2022-10-06T08:34:12.979Z,31.02
2022-10-06T08:37:35.629Z,30.33
2022-10-06T08:40:49.761Z,26.50
2022-10-06T08:44:08.669Z,25.20
2022-10-06T08:46:54.653Z,25.83
2022-10-06T08:49:44.587Z,22.90
2022-10-06T08:53:20.554Z,27.98
2022-10-06T08:56:52.223Z,24.50
2022-10-06T09:02:50.494Z,29.90
2022-10-06T09:06:12.917Z,24.73
2022-10-06T09:08:55.186Z,20.05
2022-10-06T09:15:12.219Z,16.88
2022-10-06T09:17:59.480Z,15.38
2022-10-06T09:20:58.447Z,12.93
2022-10-06T09:24:02.638Z,11.32
2022-10-06T09:26:44.787Z,12.60
2022-10-06T09:29:22.995Z,8.95
2022-10-06T09:32:10.490Z,12.80
2022-10-06T09:38:21.428Z,13.95
2022-10-06T09:44:10.307Z,9.75
2022-10-06T09:46:46.194Z,11.38
2022-10-06T09:49:33.762Z,11.35
2022-10-06T09:52:15.285Z,15.63
2022-10-06T09:55:12.317Z,12.25
2022-10-06T09:57:47.827Z,11.73
2022-10-06T10:00:48.026Z,15.18
2022-10-06T10:05:50.468Z,10.95
2022-10-06T10:08:30.780Z,12.85
2022-10-06T10:11:32.473Z,11.73
2022-10-06T10:14:02.167Z,14.18
2022-10-06T10:16:35.063Z,12.05
2022-10-06T10:19:05.712Z,10.15
2022-10-06T10:21:35.407Z,11.65
2022-10-06T10:24:08.457Z,13.95
2022-10-06T10:26:49.709Z,12.10
2022-10-06T10:29:33.165Z,12.18
2022-10-06T10:32:41.789Z,11.43
2022-10-06T10:35:48.757Z,10.48
2022-10-06T10:38:21.057Z,15.65
2022-10-06T10:41:01.447Z,12.25
2022-10-06T10:43:58.570Z,8.45
2022-10-06T10:46:58.581Z,15.13
2022-10-06T10:49:34.358Z,10.93
2022-10-06T10:52:16.220Z,13.55
2022-10-06T10:55:18.390Z,13.32
2022-10-06T10:57:50.291Z,11.27
2022-10-06T11:00:28.856Z,19.05
2022-10-06T11:02:59.379Z,10.95
2022-10-06T11:06:10.480Z,8.70
2022-10-06T11:08:52.906Z,7.80
2022-10-06T11:11:42.181Z,8.82
2022-10-06T11:14:28.289Z,9.80
2022-10-06T11:17:05.029Z,10.70
2022-10-06T11:19:48.525Z,6.70
2022-10-06T11:22:47.619Z,7.65
2022-10-06T11:25:35.083Z,9.18
2022-10-06T11:28:13.465Z,13.63
2022-10-06T11:31:04.274Z,9.32
2022-10-06T11:33:45.763Z,10.90
2022-10-06T11:36:20.503Z,8.88
2022-10-06T11:38:54.398Z,18.77
2022-10-06T11:41:34.542Z,9.48
2022-10-06T11:46:45.458Z,11.55
2022-10-06T11:49:31.829Z,6.82
2022-10-06T11:52:08.641Z,10.95
2022-10-06T11:54:47.482Z,13.02
2022-10-06T11:57:29.318Z,14.05
2022-10-06T12:00:18.169Z,8.80
2022-10-06T12:02:46.947Z,9.23
2022-10-06T12:05:55.917Z,11.75
2022-10-06T12:08:17.459Z,10.85
2022-10-06T12:10:51.081Z,12.82
2022-10-06T12:14:26.623Z,8.35
2022-10-06T12:19:28.708Z,12.50
2022-10-06T12:22:01.279Z,13.25
2022-10-06T12:24:34.140Z,10.48
2022-10-06T12:27:39.003Z,7.53
2022-10-06T12:30:21.449Z,8.23
2022-10-06T12:32:54.616Z,9.23
2022-10-06T12:35:38.059Z,8.43
2022-10-06T12:38:26.642Z,16.35
2022-10-06T12:40:55.658Z,11.40
2022-10-06T12:43:22.501Z,8.80
2022-10-06T12:45:58.402Z,15.75
2022-10-06T12:48:40.679Z,9.38
2022-10-06T12:51:13.352Z,11.00
2022-10-06T12:54:06.297Z,11.20
2022-10-06T12:56:38.674Z,11.45
2022-10-06T12:59:20.434Z,13.07
2022-10-06T13:01:51.599Z,10.05
2022-10-06T13:04:39.104Z,10.38
2022-10-06T13:07:23.877Z,13.55
2022-10-06T13:09:54.529Z,10.45
2022-10-06T13:12:30.628Z,14.82
2022-10-06T13:15:19.737Z,10.85
2022-10-06T13:17:53.351Z,8.57
2022-10-06T13:20:37.717Z,11.57
2022-10-06T13:23:12.490Z,9.38
2022-10-06T13:25:56.242Z,15.05
2022-10-06T13:28:34.557Z,13.98
2022-10-06T13:31:11.936Z,17.30
2022-10-06T13:33:41.598Z,11.27
2022-10-06T13:36:10.928Z,9.05
2022-10-06T13:38:38.645Z,10.88
2022-10-06T13:41:24.051Z,9.32
2022-10-06T13:43:58.354Z,11.77
2022-10-06T13:46:31.318Z,17.35
2022-10-06T13:49:16.956Z,12.73
2022-10-06T13:51:50.428Z,11.98
2022-10-06T13:54:41.850Z,13.10
2022-10-06T13:57:46.987Z,15.38
2022-10-06T14:00:18.250Z,14.45
2022-10-06T14:02:55.222Z,11.02
2022-10-06T14:05:41.418Z,14.65
2022-10-06T14:08:10.942Z,15.32
2022-10-06T14:10:40.725Z,16.95
2022-10-06T14:13:20.650Z,15.52
2022-10-06T14:15:57.582Z,15.98
2022-10-06T14:18:37.062Z,10.25
2022-10-06T14:21:36.841Z,13.05
2022-10-06T14:24:09.895Z,14.93
2022-10-06T14:26:37.553Z,15.40
2022-10-06T14:29:04.673Z,24.80
2022-10-06T14:31:33.952Z,23.85
2022-10-06T14:34:01.676Z,13.45
2022-10-06T14:36:30.974Z,18.52
2022-10-06T14:38:59.806Z,15.90
2022-10-06T14:41:28.879Z,10.68
2022-10-06T14:43:57.697Z,17.13
2022-10-06T14:46:25.598Z,24.17
2022-10-06T14:48:55.711Z,12.20
2022-10-06T14:51:24.957Z,13.68
2022-10-06T14:53:57.491Z,11.60
2022-10-06T14:56:26.912Z,14.65
2022-10-06T14:58:55.009Z,13.82
2022-10-06T15:01:25.342Z,12.18
2022-10-06T15:03:58.174Z,13.68
2022-10-06T15:06:44.354Z,14.88
2022-10-06T15:09:11.602Z,16.75
2022-10-06T15:11:42.712Z,13.02
2022-10-06T15:14:21.674Z,15.43
2022-10-06T15:16:49.004Z,15.75
2022-10-06T15:19:16.183Z,17.27
2022-10-06T15:21:47.349Z,17.63
2022-10-06T15:24:20.324Z,33.05
2022-10-06T15:27:06.482Z,30.25
2022-10-06T15:29:35.275Z,21.20
2022-10-06T15:32:02.975Z,20.20
2022-10-06T15:34:34.353Z,20.00
2022-10-06T15:37:02.494Z,18.38
2022-10-06T15:39:35.831Z,17.38
2022-10-06T15:42:03.266Z,19.40
2022-10-06T15:44:34.985Z,19.50
2022-10-06T15:47:07.098Z,17.75
2022-10-06T15:49:40.498Z,18.27
2022-10-06T15:52:09.166Z,17.67
2022-10-06T15:54:39.894Z,22.58
2022-10-06T15:57:17.849Z,22.27
2022-10-06T16:00:21.063Z,15.52
2022-10-06T16:02:46.894Z,20.58
2022-10-06T16:05:33.154Z,28.55
2022-10-06T16:07:59.902Z,20.88
2022-10-06T16:10:33.764Z,18.13
2022-10-06T16:13:02.043Z,22.73
2022-10-06T16:15:28.885Z,22.65
2022-10-06T16:17:59.206Z,21.77
2022-10-06T16:22:57.795Z,22.48
2022-10-06T16:25:27.288Z,23.17
2022-10-06T16:27:56.639Z,19.63
2022-10-06T16:30:24.443Z,20.57
2022-10-06T16:32:58.679Z,19.58
2022-10-06T16:35:25.606Z,16.35
2022-10-06T16:37:58.072Z,19.08
2022-10-06T16:40:24.870Z,17.73
2022-10-06T16:42:52.347Z,15.25
2022-10-06T16:45:19.202Z,15.13
2022-10-06T16:47:47.543Z,16.50
2022-10-06T16:50:14.479Z,20.42
2022-10-06T16:52:41.525Z,18.25
2022-10-06T16:55:08.576Z,16.23
2022-10-06T16:57:43.573Z,18.85
2022-10-06T17:00:24.442Z,17.92
2022-10-06T17:02:58.675Z,18.42
2022-10-06T17:08:42.726Z,23.15
2022-10-06T17:11:47.082Z,26.08
2022-10-06T17:14:53.388Z,26.23
2022-10-06T17:17:25.837Z,27.17
2022-10-06T17:21:20.402Z,30.10
2022-10-06T17:26:31.742Z,30.60
2022-10-06T17:29:11.072Z,28.35
2022-10-06T17:31:54.209Z,30.38
2022-10-06T17:35:01.283Z,31.95
2022-10-06T17:40:52.132Z,32.03
2022-10-06T17:43:38.497Z,32.03
2022-10-06T17:46:32.054Z,32.33
2022-10-06T17:49:44.526Z,33.50
2022-10-06T17:52:31.827Z,29.77
2022-10-06T17:55:04.972Z,31.70
2022-10-06T17:57:38.567Z,35.28
2022-10-06T18:00:18.551Z,34.08
2022-10-06T18:03:02.146Z,31.75
2022-10-06T18:05:39.096Z,30.15
2022-10-06T18:11:25.946Z,34.17
2022-10-06T18:13:55.231Z,36.00
2022-10-06T18:16:55.918Z,32.33
2022-10-06T18:22:18.065Z,37.65
2022-10-06T18:25:04.185Z,39.10
2022-10-06T18:27:39.893Z,35.25
2022-10-06T18:30:36.487Z,41.08
2022-10-06T18:36:06.801Z,43.05
2022-10-06T18:36:12.156Z,37.45
2022-10-06T18:39:07.526Z,35.33
2022-10-06T18:41:41.876Z,36.85
2022-10-06T18:44:11.156Z,44.58
2022-10-06T18:47:05.214Z,41.13
2022-10-06T18:49:50.514Z,36.47
2022-10-06T18:52:41.767Z,40.80
2022-10-06T18:58:21.596Z,39.78
2022-10-06T19:00:56.282Z,32.95
2022-10-06T19:06:16.814Z,35.25
2022-10-06T19:08:43.933Z,38.80
2022-10-06T19:11:29.518Z,42.97
2022-10-06T19:14:01.222Z,34.67
2022-10-06T19:16:30.275Z,35.30
2022-10-06T19:18:57.193Z,33.83
2022-10-06T19:21:43.912Z,28.35
2022-10-06T19:24:14.272Z,28.17
2022-10-06T19:26:45.950Z,33.05
2022-10-06T19:29:14.742Z,28.25
2022-10-06T19:31:49.210Z,30.40
2022-10-06T19:34:21.765Z,33.03
2022-10-06T19:36:53.875Z,34.53
2022-10-06T19:39:28.803Z,33.60
2022-10-06T19:42:16.700Z,40.55
2022-10-06T19:44:46.210Z,46.35
2022-10-06T19:47:15.252Z,43.95
2022-10-06T19:49:45.511Z,43.30
2022-10-06T19:52:17.767Z,42.15
2022-10-06T19:54:48.618Z,51.13
2022-10-06T19:57:19.262Z,44.10
2022-10-06T19:59:53.703Z,46.22
2022-10-06T20:02:21.461Z,56.50
2022-10-06T20:04:51.818Z,45.30
2022-10-06T20:09:53.759Z,50.88
2022-10-06T20:12:24.586Z,46.75
2022-10-06T20:14:53.930Z,44.28
2022-10-06T20:17:21.688Z,41.08
2022-10-06T20:19:48.632Z,51.28
2022-10-06T20:22:16.391Z,46.45
2022-10-06T20:24:43.388Z,42.33
2022-10-06T20:27:13.308Z,41.40
2022-10-06T20:29:40.161Z,52.53
2022-10-06T20:32:11.831Z,42.28
2022-10-06T20:34:39.292Z,43.97
2022-10-06T20:37:06.287Z,43.22
2022-10-06T20:39:55.835Z,47.15
2022-10-06T20:42:24.033Z,46.78
2022-10-06T20:44:50.972Z,46.10
2022-10-06T20:47:17.983Z,50.13
2022-10-06T20:49:44.874Z,54.13
2022-10-06T20:52:14.857Z,54.90
2022-10-06T20:54:43.610Z,49.15
2022-10-06T20:57:10.804Z,58.53
2022-10-06T20:59:37.859Z,57.47
2022-10-06T21:02:06.126Z,69.00
2022-10-06T21:04:38.468Z,66.68
2022-10-06T21:07:30.491Z,79.70
2022-10-06T21:10:04.838Z,76.15
2022-10-06T21:12:59.321Z,70.50
2022-10-06T21:18:30.791Z,72.35
2022-10-06T21:21:08.078Z,68.10
2022-10-06T21:24:12.593Z,70.32
2022-10-06T21:33:05.925Z,59.60
2022-10-06T21:36:11.236Z,50.80
2022-10-06T21:39:19.253Z,55.38
2022-10-06T21:42:04.842Z,47.33
2022-10-06T21:44:37.860Z,50.25
2022-10-06T21:47:30.835Z,53.15
2022-10-06T21:50:08.390Z,53.80
2022-10-06T21:52:51.852Z,46.88
2022-10-06T21:55:55.859Z,49.92
2022-10-06T21:58:32.309Z,44.90
2022-10-06T22:01:34.964Z,48.55
2022-10-06T22:04:14.720Z,51.53
2022-10-06T22:07:04.977Z,45.38
2022-10-06T22:09:37.090Z,46.03
2022-10-06T22:12:07.600Z,46.78
2022-10-06T22:14:35.563Z,39.67
2022-10-06T22:17:06.285Z,40.33
2022-10-06T22:19:34.263Z,38.58
2022-10-06T22:22:01.043Z,40.55
2022-10-06T22:24:32.982Z,42.88
2022-10-06T22:27:01.646Z,46.17
2022-10-06T22:29:28.664Z,43.03
2022-10-06T22:31:58.918Z,40.78
2022-10-06T22:34:35.829Z,67.13
2022-10-06T22:37:18.497Z,48.55
2022-10-06T22:40:04.109Z,40.70
2022-10-06T22:42:39.970Z,43.05
2022-10-06T22:45:26.206Z,39.13
2022-10-06T22:48:02.877Z,42.75
2022-10-06T22:50:31.971Z,39.13
2022-10-06T22:52:59.975Z,36.63
2022-10-06T22:55:28.120Z,42.45
2022-10-06T22:57:57.051Z,43.45
2022-10-06T23:00:30.721Z,38.50
2022-10-06T23:02:57.761Z,37.53
2022-10-06T23:05:25.437Z,39.08
2022-10-06T23:07:55.364Z,37.70
2022-10-06T23:10:24.612Z,37.53
2022-10-06T23:12:56.203Z,40.50
2022-10-06T23:15:23.691Z,43.80
2022-10-06T23:17:51.142Z,45.20
2022-10-06T23:20:18.817Z,45.72
2022-10-06T23:22:45.987Z,49.17
2022-10-06T23:25:13.056Z,52.67
2022-10-06T23:27:40.764Z,47.42
2022-10-06T23:30:08.325Z,61.45
2022-10-06T23:32:37.669Z,59.10
2022-10-06T23:35:04.811Z,64.25
2022-10-06T23:37:31.846Z,70.82
2022-10-06T23:40:00.327Z,76.22
2022-10-06T23:42:27.572Z,70.47
2022-10-06T23:45:00.367Z,73.32
2022-10-06T23:47:28.262Z,64.63
2022-10-06T23:49:58.158Z,64.78
2022-10-06T23:52:25.999Z,61.45
2022-10-06T23:54:54.178Z,60.72
2022-10-06T23:57:23.233Z,59.35
2022-10-06T23:59:50.132Z,56.78
